Estación de Mayorquina

Ultimos registro cada 15 minutos 92
Estación Fecha / Hora Temperatura Humedad Lluvia Velocidad Dirección Radiación Presion
92 Mayorquina 01-09-2026 22:45 12,1 95 0 1,3 229 0 1015,5
91 Mayorquina 01-09-2026 22:30 9,5 90 0 0 255 0 1015
90 Mayorquina 01-09-2026 22:15 9,7 89 0 0 255 0 1014,4
89 Mayorquina 01-09-2026 22:00 9,9 87 0 0 255 0 1014,3
88 Mayorquina 01-09-2026 21:45 10,5 86 0 0 255 0 1014,5
87 Mayorquina 01-09-2026 21:30 11,2 86 0 0 255 0 1014,2
86 Mayorquina 01-09-2026 21:15 11,8 85 0 0 255 0 1014,2
85 Mayorquina 01-09-2026 21:00 12,7 87 0 0 255 0 1014
84 Mayorquina 01-09-2026 20:45 13,3 86 0 0 255 0 1014,1
83 Mayorquina 01-09-2026 20:30 14,3 83 0 0 255 0 1014,2
82 Mayorquina 01-09-2026 20:15 15,3 83 0 0 255 0 1014,1
81 Mayorquina 01-09-2026 20:00 15,6 84 0 1,3 260 0 1014
80 Mayorquina 01-09-2026 19:45 15,6 83 0 0,4 250 0 1013,9
79 Mayorquina 01-09-2026 19:30 15,5 78 0 0,9 235 0 1013,6
78 Mayorquina 01-09-2026 19:15 16,7 73 0 0 276 0 1013,3
77 Mayorquina 01-09-2026 19:00 17,8 69 0 0 276 0 1013,1
76 Mayorquina 01-09-2026 18:45 19 65 0 0 280 0 1013,4
75 Mayorquina 01-09-2026 18:30 20,1 63 0 0 287 0 1013,1
74 Mayorquina 01-09-2026 18:15 21,3 59 0 0 294 9 1013,2
73 Mayorquina 01-09-2026 18:00 22,2 56 0 2,2 261 16 1013,3
72 Mayorquina 01-09-2026 17:45 23,4 52 0 1,8 204 26 1013,1
71 Mayorquina 01-09-2026 17:30 25,5 44 0 2,7 248 49 1013
70 Mayorquina 01-09-2026 17:15 27,6 36 0 3,1 260 185 1012,8
69 Mayorquina 01-09-2026 17:00 28,6 30 0 2,7 251 236 1012,5
68 Mayorquina 01-09-2026 16:45 28,8 26 0 1,3 254 290 1012,4
67 Mayorquina 01-09-2026 16:30 29,2 23 0 1,8 245 343 1012,4
66 Mayorquina 01-09-2026 16:15 29,3 22 0 1,8 254 396 1012,3
65 Mayorquina 01-09-2026 16:00 29,1 25 0 0 266 445 1012,2
64 Mayorquina 01-09-2026 15:45 28,6 28 0 2,2 211 496 1012,2
63 Mayorquina 01-09-2026 15:30 28,1 30 0 4 237 541 1012,1
62 Mayorquina 01-09-2026 15:15 28,5 31 0 4,5 243 587 1011,9
61 Mayorquina 01-09-2026 15:00 28,5 30 0 3,6 255 626 1012
60 Mayorquina 01-09-2026 14:45 28,3 31 0 5,8 247 661 1012,2
59 Mayorquina 01-09-2026 14:30 28,9 33 0 2,2 245 698 1012,2
58 Mayorquina 01-09-2026 14:15 28,8 33 0 2,2 245 728 1012,3
57 Mayorquina 01-09-2026 14:00 28,1 34 0 4 237 751 1012,4
56 Mayorquina 01-09-2026 13:45 28,2 35 0 5,4 242 773 1012,6
55 Mayorquina 01-09-2026 13:30 29,4 32 0 6,7 232 793 1012,7
54 Mayorquina 01-09-2026 13:15 30,3 30 0 4,5 246 810 1012,7
53 Mayorquina 01-09-2026 13:00 32,7 15 0 4,5 185 819 1012,8
52 Mayorquina 01-09-2026 12:45 32,6 17 0 1,8 230 828 1012,9
51 Mayorquina 01-09-2026 12:30 32,8 16 0 2,2 243 824 1013
50 Mayorquina 01-09-2026 12:15 31,9 16 0 0,9 163 819 1013,4
49 Mayorquina 01-09-2026 12:00 31,5 17 0 0,4 222 817 1013,8
48 Mayorquina 01-09-2026 11:45 30,7 18 0 0,9 120 810 1014,2
47 Mayorquina 01-09-2026 11:30 29,4 20 0 0,9 99 798 1014,5
46 Mayorquina 01-09-2026 11:15 28,7 23 0 0,4 116 777 1014,7
45 Mayorquina 01-09-2026 11:00 27,9 25 0 0,4 166 724 1015,1
44 Mayorquina 01-09-2026 10:45 26,9 27 0 1,3 253 721 1015,5
43 Mayorquina 01-09-2026 10:30 26,5 28 0 0,9 262 687 1015,5
42 Mayorquina 01-09-2026 10:15 26,8 27 0 1,3 245 650 1015,8
41 Mayorquina 01-09-2026 10:00 26,1 27 0 1,3 153 613 1015,5
40 Mayorquina 01-09-2026 09:45 24,9 32 0 3,1 83 568 1015,5
39 Mayorquina 01-09-2026 09:30 23,3 33 0 3,6 91 526 1015,3
38 Mayorquina 01-09-2026 09:15 22,2 38 0 3,6 97 473 1015,3
37 Mayorquina 01-09-2026 09:00 21 42 0 3,6 100 422 1015,3
36 Mayorquina 01-09-2026 08:45 20,1 45 0 2,7 45 369 1015,2
35 Mayorquina 01-09-2026 08:30 19,2 48 0 2,7 85 315 1015,4
34 Mayorquina 01-09-2026 08:15 17,9 52 0 1,8 128 258 1015,4
33 Mayorquina 01-09-2026 08:00 17,2 54 0 3,1 109 197 1015,5
32 Mayorquina 01-09-2026 07:45 16,5 56 0 3,6 85 135 1015,6
31 Mayorquina 01-09-2026 07:30 15,7 58 0 2,7 100 76 1015,6
30 Mayorquina 01-09-2026 07:15 15,1 62 0 1,3 84 33 1015,7
29 Mayorquina 01-09-2026 07:00 14,7 65 0 0,9 106 11 1015,6
28 Mayorquina 01-09-2026 06:45 14,3 68 0 2,2 130 0 1015,5
27 Mayorquina 01-09-2026 06:30 14,8 67 0 1,3 70 0 1015,6
26 Mayorquina 01-09-2026 06:15 14,4 68 0 1,8 62 0 1015,6
25 Mayorquina 01-09-2026 06:00 14,3 67 0 1,3 68 0 1015,7
24 Mayorquina 01-09-2026 05:45 14,7 66 0 0,9 82 0 1016
23 Mayorquina 01-09-2026 05:30 14,8 67 0 1,3 77 0 1015,9
22 Mayorquina 01-09-2026 05:15 14,2 70 0 2,2 74 0 1016,2
21 Mayorquina 01-09-2026 05:00 13,7 72 0 1,8 106 0 1016,3
20 Mayorquina 01-09-2026 04:45 13,8 72 0 0,9 104 0 1016,3
19 Mayorquina 01-09-2026 04:30 12,8 78 0 1,3 79 0 1016,7
18 Mayorquina 01-09-2026 04:15 10,7 84 0 0,4 49 0 1017,1
17 Mayorquina 01-09-2026 04:00 10,1 84 0 0 77 0 1017,2
16 Mayorquina 01-09-2026 03:45 9,6 87 0 0,4 64 0 1017,3
15 Mayorquina 01-09-2026 03:30 9,7 85 0 0 101 0 1017,4
14 Mayorquina 01-09-2026 03:15 9,9 84 0 0 175 0 1017,4
13 Mayorquina 01-09-2026 03:00 10,3 84 0 0 175 0 1017,3
12 Mayorquina 01-09-2026 02:45 10,3 83 0 0,4 175 0 1017,3
11 Mayorquina 01-09-2026 02:30 11,2 79 0 0 205 0 1017,5
10 Mayorquina 01-09-2026 02:15 12,3 76 0 0 306 0 1017,7
9 Mayorquina 01-09-2026 02:00 13,3 73 0 0 306 0 1017,6
8 Mayorquina 01-09-2026 01:45 14,2 71 0 0,4 320 0 1017,5
7 Mayorquina 01-09-2026 01:30 15,1 69 0 0,4 111 0 1017,5
6 Mayorquina 01-09-2026 01:15 15,9 68 0 0 86 0 1017,7
5 Mayorquina 01-09-2026 01:00 16 68 0 0 117 0 1017,7
4 Mayorquina 01-09-2026 00:45 15,8 69 0 1,8 54 0 1017,8
3 Mayorquina 01-09-2026 00:30 15,4 71 0 2,2 112 0 1017,9
2 Mayorquina 01-09-2026 00:15 15,6 71 0 0,9 112 0 1018,3
1 Mayorquina 01-09-2026 00:00 15,7 71 0 0,9 105 0 1018,6